createdAt,value
2018-02-17T00:00:09.229Z,0
2018-02-17T00:01:19.237Z,0
2018-02-17T00:02:29.230Z,0
2018-02-17T00:03:39.220Z,0
2018-02-17T00:04:49.219Z,0
2018-02-17T00:05:59.208Z,0
2018-02-17T00:07:09.202Z,0
2018-02-17T00:08:19.196Z,0
2018-02-17T00:09:28.925Z,0
2018-02-17T00:10:38.380Z,0
2018-02-17T00:11:48.377Z,0
2018-02-17T00:12:58.370Z,0
2018-02-17T00:14:08.094Z,0
2018-02-17T00:15:18.092Z,0
2018-02-17T00:16:28.087Z,0
2018-02-17T00:17:38.135Z,0
2018-02-17T00:18:48.142Z,0
2018-02-17T00:19:58.135Z,0
2018-02-17T00:21:08.129Z,0
2018-02-17T00:22:17.856Z,0
2018-02-17T00:23:27.848Z,0
2018-02-17T00:24:37.307Z,0
2018-02-17T00:25:47.300Z,0
2018-02-17T00:26:57.018Z,0
2018-02-17T00:28:07.011Z,0
2018-02-17T00:29:17.001Z,0
2018-02-17T00:30:26.460Z,0
2018-02-17T00:31:36.190Z,0
2018-02-17T00:32:45.648Z,0
2018-02-17T00:33:55.642Z,0
2018-02-17T00:35:05.367Z,0
2018-02-17T00:36:15.390Z,0
2018-02-17T00:37:25.457Z,0
2018-02-17T00:38:35.449Z,0
2018-02-17T00:39:45.179Z,0
2018-02-17T00:40:55.176Z,0
2018-02-17T00:42:05.165Z,0
2018-02-17T00:43:15.173Z,0
2018-02-17T00:44:25.173Z,0
2018-02-17T00:45:34.898Z,0
2018-02-17T00:46:44.892Z,0
2018-02-17T00:47:54.886Z,0
2018-02-17T00:49:04.344Z,0
2018-02-17T00:50:14.337Z,0
2018-02-17T00:51:24.065Z,0
2018-02-17T00:52:34.058Z,0
2018-02-17T00:53:44.051Z,0
2018-02-17T00:54:54.040Z,0
2018-02-17T00:56:04.044Z,0
2018-02-17T00:57:13.767Z,0
2018-02-17T00:58:23.494Z,0
2018-02-17T00:59:33.484Z,0
2018-02-17T01:00:43.579Z,0
2018-02-17T01:01:53.573Z,0
2018-02-17T01:03:03.563Z,0
2018-02-17T01:04:13.289Z,0
2018-02-17T01:05:23.288Z,0
2018-02-17T01:06:33.271Z,0
2018-02-17T01:07:43.000Z,0
2018-02-17T01:08:52.723Z,0
2018-02-17T01:10:02.724Z,0
2018-02-17T01:11:12.720Z,0
2018-02-17T01:12:22.713Z,0
2018-02-17T01:13:32.440Z,0
2018-02-17T01:14:42.504Z,0
2018-02-17T01:15:52.497Z,0
2018-02-17T01:17:02.490Z,0
2018-02-17T01:18:12.498Z,0
2018-02-17T01:19:22.499Z,0
2018-02-17T01:20:32.498Z,0
2018-02-17T01:21:42.492Z,0
2018-02-17T01:22:52.488Z,0
2018-02-17T01:24:02.478Z,0
2018-02-17T01:25:12.206Z,0
2018-02-17T01:26:22.197Z,0
2018-02-17T01:27:32.191Z,0
2018-02-17T01:28:42.183Z,0
2018-02-17T01:29:52.177Z,0
2018-02-17T01:31:02.170Z,0
2018-02-17T01:32:12.162Z,0
2018-02-17T01:33:21.890Z,0
2018-02-17T01:34:31.082Z,0
2018-02-17T01:35:41.086Z,0
2018-02-17T01:36:51.081Z,0
2018-02-17T01:38:01.072Z,0
2018-02-17T01:39:11.069Z,0
2018-02-17T01:40:21.065Z,0
2018-02-17T01:41:30.796Z,0
2018-02-17T01:42:40.251Z,0
2018-02-17T01:43:50.244Z,0
2018-02-17T01:44:59.978Z,0
2018-02-17T01:46:09.979Z,0
2018-02-17T01:47:19.704Z,0
2018-02-17T01:48:29.696Z,0
2018-02-17T01:49:39.683Z,0
2018-02-17T01:50:49.681Z,0
2018-02-17T01:51:59.670Z,0
2018-02-17T01:53:09.761Z,0
2018-02-17T01:54:19.221Z,0
2018-02-17T01:55:29.214Z,0
2018-02-17T01:56:39.211Z,0
2018-02-17T01:57:49.202Z,0
2018-02-17T01:58:59.191Z,0
2018-02-17T02:00:08.380Z,0
2018-02-17T02:01:18.116Z,0
2018-02-17T02:02:28.109Z,0
2018-02-17T02:03:38.109Z,0
2018-02-17T02:04:48.102Z,0
2018-02-17T02:05:57.829Z,0
2018-02-17T02:07:07.553Z,0
2018-02-17T02:08:17.543Z,0
2018-02-17T02:09:27.537Z,0
2018-02-17T02:10:37.528Z,0
2018-02-17T02:11:47.520Z,0
2018-02-17T02:12:57.512Z,0
2018-02-17T02:14:07.238Z,0
2018-02-17T02:15:17.235Z,0
2018-02-17T02:16:27.017Z,0
2018-02-17T02:17:37.013Z,0
2018-02-17T02:18:47.009Z,0
2018-02-17T02:19:56.736Z,0
2018-02-17T02:21:06.731Z,0
2018-02-17T02:22:16.723Z,0
2018-02-17T02:23:26.178Z,0
2018-02-17T02:24:36.175Z,0
2018-02-17T02:25:46.162Z,0
2018-02-17T02:26:56.154Z,0
2018-02-17T02:28:06.148Z,0
2018-02-17T02:29:16.140Z,0
2018-02-17T02:30:25.869Z,0
2018-02-17T02:31:35.597Z,0
2018-02-17T02:32:45.598Z,0
2018-02-17T02:33:55.588Z,0
2018-02-17T02:35:05.315Z,0
2018-02-17T02:36:15.041Z,0
2018-02-17T02:37:25.053Z,0
2018-02-17T02:38:34.778Z,0
2018-02-17T02:39:44.776Z,0
2018-02-17T02:40:54.793Z,0
2018-02-17T02:42:04.782Z,0
2018-02-17T02:43:14.511Z,0
2018-02-17T02:44:24.265Z,0
2018-02-17T02:45:33.503Z,0
2018-02-17T02:46:43.505Z,0
2018-02-17T02:47:53.519Z,0
2018-02-17T02:49:03.519Z,0
2018-02-17T02:50:12.988Z,0
2018-02-17T02:51:22.445Z,0
2018-02-17T02:52:32.430Z,0
2018-02-17T02:53:42.431Z,0
2018-02-17T02:54:52.425Z,0
2018-02-17T02:56:01.892Z,0
2018-02-17T02:57:11.617Z,0
2018-02-17T02:58:21.349Z,0
2018-02-17T02:59:31.340Z,0
2018-02-17T03:00:41.065Z,0
2018-02-17T03:01:51.063Z,0
2018-02-17T03:03:01.053Z,0
2018-02-17T03:04:10.511Z,0
2018-02-17T03:05:20.243Z,0
2018-02-17T03:06:30.236Z,0
2018-02-17T03:07:40.225Z,0
2018-02-17T03:08:50.214Z,0
2018-02-17T03:10:00.209Z,0
2018-02-17T03:11:10.198Z,0
2018-02-17T03:12:19.929Z,0
2018-02-17T03:13:29.928Z,0
2018-02-17T03:14:39.922Z,0
2018-02-17T03:15:49.912Z,0
2018-02-17T03:16:59.645Z,0
2018-02-17T03:18:09.108Z,0
2018-02-17T03:19:18.827Z,0
2018-02-17T03:20:28.818Z,0
2018-02-17T03:21:38.805Z,0
2018-02-17T03:22:48.795Z,0
2018-02-17T03:23:58.782Z,0
2018-02-17T03:25:08.510Z,0
2018-02-17T03:26:18.546Z,0
2018-02-17T03:27:28.543Z,0
2018-02-17T03:28:38.532Z,0
2018-02-17T03:29:48.533Z,0
2018-02-17T03:30:58.531Z,0
2018-02-17T03:32:08.522Z,0
2018-02-17T03:33:17.976Z,0
2018-02-17T03:34:27.968Z,0
2018-02-17T03:35:37.953Z,0
2018-02-17T03:36:47.945Z,0
2018-02-17T03:37:57.671Z,0
2018-02-17T03:39:07.392Z,0
2018-02-17T03:40:17.372Z,0
2018-02-17T03:41:27.363Z,0
2018-02-17T03:42:37.085Z,0
2018-02-17T03:43:47.078Z,0
2018-02-17T03:44:56.801Z,0
2018-02-17T03:46:06.256Z,0
2018-02-17T03:47:15.980Z,0
2018-02-17T03:48:25.968Z,0
2018-02-17T03:49:35.158Z,0
2018-02-17T03:50:45.153Z,0
2018-02-17T03:51:55.147Z,0
2018-02-17T03:53:05.143Z,0
2018-02-17T03:54:14.864Z,0
2018-02-17T03:55:24.320Z,0
2018-02-17T03:56:34.308Z,0
2018-02-17T03:57:44.306Z,0
2018-02-17T03:58:54.296Z,0
2018-02-17T04:00:04.293Z,0
2018-02-17T04:03:46.322Z,0
2018-02-17T04:04:55.774Z,0
2018-02-17T04:06:05.503Z,0
2018-02-17T04:07:15.227Z,0
2018-02-17T04:08:24.951Z,0
2018-02-17T04:09:34.943Z,0
2018-02-17T04:10:44.940Z,0
2018-02-17T04:11:54.938Z,0
2018-02-17T04:13:04.663Z,0
2018-02-17T04:14:14.127Z,0
2018-02-17T04:15:23.582Z,0
2018-02-17T04:16:33.309Z,0
2018-02-17T04:17:43.086Z,0
2018-02-17T04:18:53.115Z,0
2018-02-17T04:20:03.102Z,0
2018-02-17T04:21:12.553Z,0
2018-02-17T04:22:22.548Z,0
2018-02-17T04:23:32.273Z,0
2018-02-17T04:24:41.998Z,0
2018-02-17T04:25:51.720Z,0
2018-02-17T04:27:01.447Z,0
2018-02-17T04:28:11.442Z,0
2018-02-17T04:29:21.430Z,0
2018-02-17T04:30:31.413Z,0
2018-02-17T04:31:41.130Z,0
2018-02-17T04:32:51.121Z,0
2018-02-17T04:34:00.844Z,0
2018-02-17T04:35:10.567Z,0
2018-02-17T04:36:20.544Z,0
2018-02-17T04:37:30.540Z,0
2018-02-17T04:38:40.261Z,0
2018-02-17T04:39:49.716Z,0
2018-02-17T04:40:59.702Z,0
2018-02-17T04:42:09.426Z,0
2018-02-17T04:43:18.880Z,0
2018-02-17T04:44:28.863Z,0
2018-02-17T04:45:38.851Z,0
2018-02-17T04:46:48.565Z,0
2018-02-17T04:47:58.560Z,0
2018-02-17T04:49:08.018Z,0
2018-02-17T04:50:17.739Z,0
2018-02-17T04:51:27.722Z,0
2018-02-17T04:52:37.709Z,0
2018-02-17T04:53:47.698Z,0
2018-02-17T04:54:57.680Z,0
2018-02-17T04:56:07.506Z,0
2018-02-17T04:57:17.223Z,0
2018-02-17T04:58:27.214Z,0
2018-02-17T04:59:36.928Z,0
2018-02-17T05:00:46.925Z,0
2018-02-17T05:01:56.905Z,0
2018-02-17T05:03:06.355Z,0
2018-02-17T05:04:15.545Z,0
2018-02-17T05:05:25.527Z,0
2018-02-17T05:06:35.517Z,0
2018-02-17T05:07:45.552Z,0
2018-02-17T05:08:55.534Z,0
2018-02-17T05:10:05.256Z,0
2018-02-17T05:11:15.247Z,0
2018-02-17T05:12:25.229Z,0
2018-02-17T05:13:35.214Z,0
2018-02-17T05:14:44.942Z,0
2018-02-17T05:15:54.931Z,0
2018-02-17T05:17:04.929Z,0
2018-02-17T05:18:14.916Z,0
2018-02-17T05:19:24.676Z,0
2018-02-17T05:20:34.395Z,0
2018-02-17T05:21:44.384Z,0
2018-02-17T05:22:54.366Z,0
2018-02-17T05:24:04.355Z,0
2018-02-17T05:25:13.910Z,0
2018-02-17T05:26:23.631Z,0
2018-02-17T05:27:33.675Z,0
2018-02-17T05:28:43.457Z,0
2018-02-17T05:29:53.444Z,0
2018-02-17T05:31:03.431Z,0
2018-02-17T05:32:13.155Z,0
2018-02-17T05:33:23.143Z,0
2018-02-17T05:34:33.128Z,0
2018-02-17T05:35:43.123Z,0
2018-02-17T05:36:53.109Z,0
2018-02-17T05:38:02.832Z,0
2018-02-17T05:39:12.556Z,0
2018-02-17T05:40:22.540Z,0
2018-02-17T05:41:32.521Z,0
2018-02-17T05:42:42.513Z,0
2018-02-17T05:43:52.234Z,0
2018-02-17T05:45:02.225Z,0
2018-02-17T05:46:12.211Z,0
2018-02-17T05:47:22.203Z,0
2018-02-17T05:48:32.497Z,0
2018-02-17T05:49:42.485Z,0
2018-02-17T05:50:52.474Z,0
2018-02-17T05:52:02.474Z,0
2018-02-17T05:53:12.197Z,0
2018-02-17T05:54:22.182Z,0
2018-02-17T05:55:32.171Z,0
2018-02-17T05:56:42.157Z,0
2018-02-17T05:57:52.150Z,0
2018-02-17T05:59:01.873Z,0
2018-02-17T06:00:11.594Z,0
2018-02-17T06:01:21.051Z,0
2018-02-17T06:02:30.775Z,0
2018-02-17T06:03:40.766Z,0
2018-02-17T06:04:50.757Z,0
2018-02-17T06:06:00.749Z,0
2018-02-17T06:07:10.203Z,0
2018-02-17T06:08:20.197Z,0
2018-02-17T06:09:29.918Z,4
2018-02-17T06:10:39.943Z,4
2018-02-17T06:11:49.926Z,0
2018-02-17T06:12:59.913Z,4
2018-02-17T06:14:09.906Z,4
2018-02-17T06:15:19.894Z,4
2018-02-17T06:16:29.889Z,4
2018-02-17T06:17:39.877Z,4
2018-02-17T06:18:49.870Z,8
2018-02-17T06:19:59.862Z,8
2018-02-17T06:21:09.853Z,8
2018-02-17T06:22:19.584Z,8
2018-02-17T06:23:29.623Z,12
2018-02-17T06:24:39.605Z,12
2018-02-17T06:25:49.592Z,16
2018-02-17T06:26:59.044Z,20
2018-02-17T06:28:09.029Z,20
2018-02-17T06:29:19.023Z,24
2018-02-17T06:30:28.740Z,28
2018-02-17T06:31:38.196Z,32
2018-02-17T06:32:47.918Z,36
2018-02-17T06:33:57.643Z,44
2018-02-17T06:35:07.366Z,48
2018-02-17T06:36:17.363Z,56
2018-02-17T06:37:27.358Z,64
2018-02-17T06:38:37.344Z,72
2018-02-17T06:39:47.326Z,80
2018-02-17T06:40:57.098Z,96
2018-02-17T06:42:06.819Z,104
2018-02-17T06:43:16.540Z,120
2018-02-17T06:44:26.527Z,132
2018-02-17T06:45:36.528Z,152
2018-02-17T06:46:46.244Z,168
2018-02-17T06:47:56.233Z,184
2018-02-17T06:49:05.951Z,204
2018-02-17T06:50:15.676Z,224
2018-02-17T06:51:25.665Z,240
2018-02-17T06:52:35.390Z,260
2018-02-17T06:53:45.383Z,280
2018-02-17T06:54:55.147Z,300
2018-02-17T06:56:04.913Z,324
2018-02-17T06:57:14.912Z,348
2018-02-17T06:58:24.637Z,372
2018-02-17T06:59:34.625Z,400
2018-02-17T07:00:44.345Z,424
2018-02-17T07:01:54.344Z,448
2018-02-17T07:03:04.342Z,476
2018-02-17T07:04:14.332Z,500
2018-02-17T07:05:24.050Z,520
2018-02-17T07:06:34.038Z,540
2018-02-17T07:07:43.763Z,564
2018-02-17T07:08:53.749Z,592
2018-02-17T07:10:03.529Z,620
2018-02-17T07:11:13.524Z,652
2018-02-17T07:12:23.517Z,692
2018-02-17T07:13:32.971Z,728
2018-02-17T07:14:42.694Z,756
2018-02-17T07:15:52.418Z,780
2018-02-17T07:17:02.407Z,804
2018-02-17T07:18:12.131Z,836
2018-02-17T07:19:22.124Z,876
2018-02-17T07:20:31.972Z,904
2018-02-17T07:21:41.698Z,932
2018-02-17T07:22:51.691Z,960
2018-02-17T07:24:01.677Z,988
2018-02-17T07:25:11.673Z,1020
2018-02-17T07:26:21.406Z,1060
2018-02-17T07:27:31.228Z,1100
2018-02-17T07:28:41.222Z,1136
2018-02-17T07:29:51.208Z,1168
2018-02-17T07:31:01.206Z,1200
2018-02-17T07:32:10.928Z,1232
2018-02-17T07:33:21.018Z,1268
2018-02-17T07:34:31.005Z,1296
2018-02-17T07:35:40.989Z,1324
2018-02-17T07:36:50.708Z,1360
2018-02-17T07:38:00.709Z,1412
2018-02-17T07:39:10.696Z,1504
2018-02-17T07:40:20.741Z,1612
2018-02-17T07:41:30.778Z,1716
2018-02-17T07:42:40.504Z,1812
2018-02-17T07:43:49.958Z,1972
2018-02-17T07:44:59.687Z,2148
2018-02-17T07:46:09.139Z,2292
2018-02-17T07:47:18.594Z,2388
2018-02-17T07:48:28.583Z,2432
2018-02-17T07:49:38.578Z,2436
2018-02-17T07:50:48.670Z,2440
2018-02-17T07:51:58.388Z,2432
2018-02-17T07:53:08.383Z,2444
2018-02-17T07:54:18.377Z,2460
2018-02-17T07:55:28.413Z,2480
2018-02-17T07:56:38.408Z,2524
2018-02-17T07:57:48.136Z,2568
2018-02-17T07:58:57.865Z,2592
2018-02-17T08:00:07.704Z,2680
2018-02-17T08:01:17.436Z,2892
2018-02-17T08:02:27.204Z,3084
2018-02-17T08:03:37.202Z,3156
2018-02-17T08:04:47.199Z,3176
2018-02-17T08:05:57.193Z,3208
2018-02-17T08:07:06.956Z,3216
2018-02-17T08:08:16.957Z,3208
2018-02-17T08:09:26.680Z,3196
2018-02-17T08:10:36.674Z,3176
2018-02-17T08:11:46.704Z,3168
2018-02-17T08:12:56.698Z,3160
2018-02-17T08:14:06.693Z,3124
2018-02-17T08:15:16.679Z,3156
2018-02-17T08:16:26.405Z,3184
2018-02-17T08:17:36.396Z,3240
2018-02-17T08:18:45.853Z,3348
2018-02-17T08:19:56.148Z,3464
2018-02-17T08:21:06.147Z,3508
2018-02-17T08:22:15.874Z,3580
2018-02-17T08:23:25.332Z,3784
2018-02-17T08:24:35.452Z,3980
2018-02-17T08:25:45.501Z,3976
2018-02-17T08:26:55.488Z,3820
2018-02-17T08:28:05.211Z,3688
2018-02-17T08:29:15.203Z,3640
2018-02-17T08:30:25.194Z,3720
2018-02-17T08:31:35.180Z,3928
2018-02-17T08:32:44.915Z,4180
2018-02-17T08:33:54.922Z,4348
2018-02-17T08:35:04.929Z,4392
2018-02-17T08:36:14.924Z,4416
2018-02-17T08:37:24.657Z,4432
2018-02-17T08:38:34.645Z,4384
2018-02-17T08:39:44.645Z,4304
2018-02-17T08:40:54.645Z,4308
2018-02-17T08:42:04.645Z,4408
2018-02-17T08:43:13.834Z,4512
2018-02-17T08:44:23.831Z,4604
2018-02-17T08:45:33.640Z,4724
2018-02-17T08:46:43.091Z,4848
2018-02-17T08:47:53.083Z,4932
2018-02-17T08:49:03.078Z,4916
2018-02-17T08:50:12.797Z,4872
2018-02-17T08:51:22.791Z,4940
2018-02-17T08:52:32.789Z,5080
2018-02-17T08:53:42.779Z,5144
2018-02-17T08:54:52.509Z,5044
2018-02-17T08:56:01.960Z,4880
2018-02-17T08:57:11.691Z,4820
2018-02-17T08:58:21.421Z,4980
2018-02-17T08:59:31.142Z,5292
2018-02-17T09:00:40.918Z,5568
2018-02-17T09:01:50.937Z,5708
2018-02-17T09:03:00.663Z,5728
2018-02-17T09:04:10.409Z,5716
2018-02-17T09:05:20.139Z,5664
2018-02-17T09:06:29.600Z,5652
2018-02-17T09:07:39.619Z,5768
2018-02-17T09:08:49.602Z,5852
2018-02-17T09:09:59.326Z,5816
2018-02-17T09:11:09.322Z,5752
2018-02-17T09:12:19.060Z,5692
2018-02-17T09:13:29.049Z,5740
2018-02-17T09:14:39.040Z,5952
2018-02-17T09:15:49.035Z,6136
2018-02-17T09:16:59.033Z,5984
2018-02-17T09:18:08.761Z,5776
2018-02-17T09:19:18.490Z,5844
2018-02-17T09:20:28.488Z,6108
2018-02-17T09:21:38.483Z,6272
2018-02-17T09:22:48.234Z,6264
2018-02-17T09:23:58.112Z,6288
2018-02-17T09:25:08.116Z,6376
2018-02-17T09:26:17.848Z,6452
2018-02-17T09:27:27.841Z,6556
2018-02-17T09:28:37.883Z,6600
2018-02-17T09:29:47.877Z,6544
2018-02-17T09:30:57.865Z,6516
2018-02-17T09:32:07.585Z,6616
2018-02-17T09:33:17.579Z,6672
2018-02-17T09:34:27.308Z,6620
2018-02-17T09:35:37.301Z,6696
2018-02-17T09:36:47.296Z,6844
2018-02-17T09:37:57.286Z,6972
2018-02-17T09:39:07.016Z,7004
2018-02-17T09:40:16.471Z,7040
2018-02-17T09:41:26.194Z,7060
2018-02-17T09:42:36.184Z,7036
2018-02-17T09:43:46.177Z,7044
2018-02-17T09:44:56.173Z,7104
2018-02-17T09:46:05.686Z,7232
2018-02-17T09:47:15.735Z,7292
2018-02-17T09:48:25.730Z,7344
2018-02-17T09:49:35.718Z,7348
2018-02-17T09:50:45.719Z,7428
2018-02-17T09:51:55.707Z,7516
2018-02-17T09:53:05.701Z,7616
2018-02-17T09:54:15.696Z,7692
2018-02-17T09:55:25.691Z,7640
2018-02-17T09:56:35.679Z,7644
2018-02-17T09:57:45.693Z,7752
2018-02-17T09:58:55.469Z,7996
2018-02-17T10:00:04.659Z,8036
2018-02-17T10:01:14.668Z,7952
2018-02-17T10:02:24.475Z,8008
2018-02-17T10:03:34.470Z,8044
2018-02-17T10:04:44.482Z,8064
2018-02-17T10:05:54.488Z,8084
2018-02-17T10:07:03.947Z,8176
2018-02-17T10:08:13.943Z,8252
2018-02-17T10:09:23.673Z,8264
2018-02-17T10:10:33.773Z,8348
2018-02-17T10:11:43.763Z,8488
2018-02-17T10:12:53.488Z,8516
2018-02-17T10:14:03.483Z,8592
2018-02-17T10:15:12.943Z,8704
2018-02-17T10:16:22.937Z,8916
2018-02-17T10:17:32.393Z,9120
2018-02-17T10:18:42.388Z,8948
2018-02-17T10:19:51.895Z,8628
2018-02-17T10:21:01.625Z,8632
2018-02-17T10:22:11.622Z,8848
2018-02-17T10:23:21.097Z,9040
2018-02-17T10:24:31.149Z,9112
2018-02-17T10:25:41.146Z,9204
2018-02-17T10:26:50.873Z,9360
2018-02-17T10:28:00.702Z,9364
2018-02-17T10:29:10.430Z,9268
2018-02-17T10:30:20.161Z,9276
2018-02-17T10:31:29.887Z,9352
2018-02-17T10:32:39.895Z,9332
2018-02-17T10:33:49.356Z,9272
2018-02-17T10:34:59.360Z,9332
2018-02-17T10:36:09.357Z,9636
2018-02-17T10:37:19.092Z,9912
2018-02-17T10:38:29.086Z,9848
2018-02-17T10:39:39.083Z,9588
2018-02-17T10:40:49.085Z,9524
2018-02-17T10:41:59.075Z,9648
2018-02-17T10:43:09.068Z,9740
2018-02-17T10:44:19.064Z,9724
2018-02-17T10:45:29.064Z,9800
2018-02-17T10:46:38.790Z,10140
2018-02-17T10:47:48.792Z,10276
2018-02-17T10:48:58.784Z,10092
2018-02-17T10:50:08.510Z,9872
2018-02-17T10:51:18.561Z,9948
2018-02-17T10:52:28.569Z,10164
2018-02-17T10:53:38.292Z,10244
2018-02-17T10:54:47.770Z,10028
2018-02-17T10:55:57.791Z,9788
2018-02-17T10:57:07.828Z,9816
2018-02-17T10:58:17.819Z,9996
2018-02-17T10:59:27.286Z,10056
2018-02-17T11:00:37.046Z,9956
2018-02-17T11:01:47.163Z,9844
2018-02-17T11:02:57.154Z,9636
2018-02-17T11:04:07.154Z,9548
2018-02-17T11:05:16.879Z,9692
2018-02-17T11:06:26.883Z,9800
2018-02-17T11:07:36.881Z,9776
2018-02-17T11:08:46.606Z,9840
2018-02-17T11:09:56.605Z,10068
2018-02-17T11:11:06.069Z,10280
2018-02-17T11:12:16.106Z,10076
2018-02-17T11:13:25.900Z,9960
2018-02-17T11:14:35.633Z,10056
2018-02-17T11:15:45.361Z,10044
2018-02-17T11:16:55.356Z,9940
2018-02-17T11:18:05.083Z,9832
2018-02-17T11:19:14.539Z,9748
2018-02-17T11:20:24.534Z,9768
2018-02-17T11:21:34.269Z,9892
2018-02-17T11:22:44.266Z,10208
2018-02-17T11:23:54.074Z,10416
2018-02-17T11:25:04.077Z,10452
2018-02-17T11:26:14.072Z,10492
2018-02-17T11:27:24.162Z,10352
2018-02-17T11:28:33.900Z,10348
2018-02-17T11:29:43.897Z,10440
2018-02-17T11:30:53.626Z,10248
2018-02-17T11:32:03.621Z,10220
2018-02-17T11:33:12.814Z,10448
2018-02-17T11:34:22.843Z,10740
2018-02-17T11:35:32.575Z,10708
2018-02-17T11:36:42.641Z,10880
2018-02-17T11:37:52.671Z,11032
2018-02-17T11:39:02.668Z,11100
2018-02-17T11:40:11.863Z,11152
2018-02-17T11:41:21.856Z,11232
2018-02-17T11:42:31.846Z,11140
2018-02-17T11:43:41.573Z,10908
2018-02-17T11:44:51.569Z,10936
2018-02-17T11:46:01.295Z,11304
2018-02-17T11:47:10.756Z,11492
2018-02-17T11:48:20.494Z,11328
2018-02-17T11:49:30.492Z,11216
2018-02-17T11:50:39.419Z,11696
2018-02-17T11:51:49.144Z,11860
2018-02-17T11:52:58.881Z,11448
2018-02-17T11:54:08.341Z,11212
2018-02-17T11:55:18.073Z,11688
2018-02-17T11:56:27.529Z,12052
2018-02-17T11:57:37.534Z,12012
2018-02-17T11:58:47.573Z,11800
2018-02-17T11:59:56.497Z,11508
2018-02-17T12:01:05.689Z,11336
2018-02-17T12:02:14.885Z,11136
2018-02-17T12:03:24.200Z,10928
2018-02-17T12:04:33.425Z,10992
2018-02-17T12:05:43.159Z,11200
2018-02-17T12:06:52.404Z,11328
2018-02-17T12:08:01.331Z,11356
2018-02-17T12:09:10.260Z,11432
2018-02-17T12:10:19.460Z,11424
2018-02-17T12:11:29.189Z,11392
2018-02-17T12:12:38.387Z,11356
2018-02-17T12:13:48.115Z,11204
2018-02-17T12:14:57.042Z,11364
2018-02-17T12:16:06.776Z,11852
2018-02-17T12:17:16.501Z,12068
2018-02-17T12:18:25.965Z,11492
2018-02-17T12:19:35.167Z,10932
2018-02-17T12:20:44.358Z,10708
2018-02-17T12:21:53.813Z,10608
2018-02-17T12:23:03.273Z,10520
2018-02-17T12:24:13.001Z,10428
2018-02-17T12:25:22.732Z,10492
2018-02-17T12:26:32.471Z,10624
2018-02-17T12:27:42.206Z,10576
2018-02-17T12:28:52.205Z,10344
2018-02-17T12:30:01.665Z,10112
2018-02-17T12:31:11.394Z,9668
2018-02-17T12:32:21.399Z,9240
2018-02-17T12:33:31.129Z,9268
2018-02-17T12:34:40.859Z,9600
2018-02-17T12:35:50.855Z,9820
2018-02-17T12:37:00.318Z,9812
2018-02-17T12:38:10.316Z,9540
2018-02-17T12:39:19.772Z,9260
2018-02-17T12:40:29.494Z,9380
2018-02-17T12:41:39.490Z,9572
2018-02-17T12:42:49.499Z,9472
2018-02-17T12:43:59.494Z,9236
2018-02-17T12:45:09.052Z,8932
2018-02-17T12:46:18.514Z,8720
2018-02-17T12:47:28.243Z,8844
2018-02-17T12:48:38.241Z,9080
2018-02-17T12:49:48.237Z,9140
2018-02-17T12:50:58.099Z,9136
2018-02-17T12:52:07.884Z,9096
2018-02-17T12:53:17.346Z,9052
2018-02-17T12:54:27.395Z,9024
2018-02-17T12:55:37.395Z,9104
2018-02-17T12:56:47.392Z,9288
2018-02-17T12:57:57.387Z,9228
2018-02-17T12:59:06.894Z,9088
2018-02-17T13:00:16.619Z,8960
2018-02-17T13:01:26.351Z,8808
2018-02-17T13:02:36.347Z,8576
2018-02-17T13:03:46.354Z,8552
2018-02-17T13:04:56.079Z,8480
2018-02-17T13:06:06.076Z,8244
2018-02-17T13:07:16.079Z,8092
2018-02-17T13:08:25.806Z,8092
2018-02-17T13:09:35.537Z,8276
2018-02-17T13:10:45.536Z,8276
2018-02-17T13:11:55.265Z,7932
2018-02-17T13:13:04.998Z,7736
2018-02-17T13:14:14.727Z,7936
2018-02-17T13:15:24.194Z,8088
2018-02-17T13:16:34.192Z,7904
2018-02-17T13:17:44.195Z,7744
2018-02-17T13:18:53.925Z,7824
2018-02-17T13:20:03.921Z,7952
2018-02-17T13:21:13.922Z,8024
2018-02-17T13:22:23.649Z,8028
2018-02-17T13:23:33.646Z,7972
2018-02-17T13:24:43.655Z,7872
2018-02-17T13:25:53.650Z,7880
2018-02-17T13:27:03.644Z,7912
2018-02-17T13:28:13.375Z,7780
2018-02-17T13:29:23.386Z,7676
2018-02-17T13:30:33.393Z,7604
2018-02-17T13:31:43.396Z,7600
2018-02-17T13:32:53.136Z,7620
2018-02-17T13:34:03.142Z,7556
2018-02-17T13:35:12.343Z,7288
2018-02-17T13:36:22.077Z,6972
2018-02-17T13:37:31.807Z,6812
2018-02-17T13:38:41.819Z,6728
2018-02-17T13:39:51.813Z,6740
2018-02-17T13:41:01.809Z,6768
2018-02-17T13:42:11.268Z,6712
2018-02-17T13:43:20.999Z,6596
2018-02-17T13:44:30.739Z,6548
2018-02-17T13:45:40.572Z,6528
2018-02-17T13:46:50.574Z,6432
2018-02-17T13:48:00.326Z,6248
2018-02-17T13:49:09.789Z,5976
2018-02-17T13:50:19.520Z,5948
2018-02-17T13:51:29.247Z,6108
2018-02-17T13:52:39.256Z,6248
2018-02-17T13:53:49.253Z,6384
2018-02-17T13:54:58.984Z,6268
2018-02-17T13:56:08.978Z,5980
2018-02-17T13:57:18.446Z,5764
2018-02-17T13:58:27.916Z,5680
2018-02-17T13:59:37.647Z,5556
2018-02-17T14:00:47.643Z,5468
2018-02-17T14:01:57.728Z,5380
2018-02-17T14:03:07.025Z,5372
2018-02-17T14:04:17.026Z,5340
2018-02-17T14:05:26.765Z,5220
2018-02-17T14:06:36.241Z,5152
2018-02-17T14:07:46.239Z,5240
2018-02-17T14:08:55.974Z,5188
2018-02-17T14:10:05.759Z,5140
2018-02-17T14:11:15.217Z,5044
2018-02-17T14:12:24.971Z,4924
2018-02-17T14:13:34.695Z,4796
2018-02-17T14:14:44.741Z,4780
2018-02-17T14:15:54.581Z,4820
2018-02-17T14:17:04.575Z,4860
2018-02-17T14:18:14.309Z,4616
2018-02-17T14:19:23.508Z,4096
2018-02-17T14:20:33.547Z,3556
2018-02-17T14:21:43.549Z,3064
2018-02-17T14:22:53.555Z,2772
2018-02-17T14:24:03.579Z,2548
2018-02-17T14:25:13.593Z,2424
2018-02-17T14:26:23.324Z,2472
2018-02-17T14:27:33.056Z,2376
2018-02-17T14:28:43.054Z,2312
2018-02-17T14:29:53.050Z,2252
2018-02-17T14:31:02.784Z,2260
2018-02-17T14:32:12.565Z,2256
2018-02-17T14:33:22.291Z,2224
2018-02-17T14:34:32.307Z,2264
2018-02-17T14:35:42.359Z,2376
2018-02-17T14:36:52.353Z,2452
2018-02-17T14:38:02.082Z,2648
2018-02-17T14:39:12.074Z,2896
2018-02-17T14:40:22.064Z,3052
2018-02-17T14:41:31.530Z,3160
2018-02-17T14:42:41.519Z,3224
2018-02-17T14:43:51.520Z,3172
2018-02-17T14:45:01.291Z,3064
2018-02-17T14:46:10.484Z,2884
2018-02-17T14:47:20.486Z,2748
2018-02-17T14:48:30.481Z,2688
2018-02-17T14:49:40.475Z,2608
2018-02-17T14:50:50.473Z,2456
2018-02-17T14:52:00.465Z,2304
2018-02-17T14:53:09.922Z,2268
2018-02-17T14:54:19.915Z,2264
2018-02-17T14:55:29.638Z,2228
2018-02-17T14:56:39.655Z,2172
2018-02-17T14:57:49.655Z,2144
2018-02-17T14:58:59.379Z,2116
2018-02-17T15:00:09.379Z,2060
2018-02-17T15:01:19.377Z,1976
2018-02-17T15:02:29.365Z,1840
2018-02-17T15:03:39.363Z,1688
2018-02-17T15:04:49.361Z,1564
2018-02-17T15:05:59.365Z,1500
2018-02-17T15:07:09.094Z,1460
2018-02-17T15:08:18.828Z,1436
2018-02-17T15:09:28.638Z,1416
2018-02-17T15:10:38.370Z,1384
2018-02-17T15:11:48.493Z,1364
2018-02-17T15:12:58.224Z,1356
2018-02-17T15:14:07.699Z,1348
2018-02-17T15:15:17.425Z,1320
2018-02-17T15:16:27.417Z,1300
2018-02-17T15:17:37.415Z,1296
2018-02-17T15:18:47.410Z,1292
2018-02-17T15:19:57.402Z,1296
2018-02-17T15:21:07.131Z,1300
2018-02-17T15:22:17.126Z,1304
2018-02-17T15:23:27.225Z,1340
2018-02-17T15:24:37.267Z,1356
2018-02-17T15:25:47.262Z,1332
2018-02-17T15:26:57.307Z,1304
2018-02-17T15:28:07.301Z,1296
2018-02-17T15:29:17.035Z,1284
2018-02-17T15:30:27.036Z,1232
2018-02-17T15:31:37.027Z,1180
2018-02-17T15:32:47.019Z,1188
2018-02-17T15:33:56.744Z,1180
2018-02-17T15:35:06.203Z,1140
2018-02-17T15:36:16.196Z,1072
2018-02-17T15:37:26.189Z,976
2018-02-17T15:38:35.962Z,892
2018-02-17T15:39:45.684Z,832
2018-02-17T15:40:55.683Z,792
2018-02-17T15:42:05.407Z,752
2018-02-17T15:43:15.135Z,720
2018-02-17T15:44:25.125Z,696
2018-02-17T15:45:35.119Z,664
2018-02-17T15:46:45.114Z,636
2018-02-17T15:47:55.172Z,612
2018-02-17T15:49:05.171Z,584
2018-02-17T15:50:14.896Z,564
2018-02-17T15:51:24.887Z,540
2018-02-17T15:52:34.877Z,516
2018-02-17T15:53:44.336Z,492
2018-02-17T15:54:54.061Z,464
2018-02-17T15:56:04.056Z,444
2018-02-17T15:57:14.066Z,420
2018-02-17T15:58:24.059Z,392
2018-02-17T15:59:33.824Z,364
2018-02-17T16:00:43.811Z,336
2018-02-17T16:01:53.822Z,316
2018-02-17T16:03:03.599Z,292
2018-02-17T16:04:13.607Z,272
2018-02-17T16:05:23.068Z,252
2018-02-17T16:06:32.794Z,236
2018-02-17T16:07:42.512Z,220
2018-02-17T16:08:51.711Z,204
2018-02-17T16:10:01.441Z,188
2018-02-17T16:11:11.444Z,172